Time;durP1;ratioP1;P1;durP2;ratioP2;P2;SDS_P1;SDS_P2;PMS_P1;PMS_P2;Temp;Humidity;BMP_temperature;BMP_pressure;BME280_temperature;BME280_humidity;BME280_pressure;Samples;Min_cycle;Max_cycle;Signal;HPM_P1;HPM_P2
2021/12/13 00:00:24;;;;;;;8.98;6.60;;;2.40;99.90;;;;;;5092272;28;20032;-68
2021/12/13 00:03:14;;;;;;;12.63;7.82;;;2.40;99.90;;;;;;5093459;28;20067;-68
2021/12/13 00:05:48;;;;;;;12.45;7.72;;;2.40;99.90;;;;;;5071577;28;20127;-68
2021/12/13 00:08:20;;;;;;;11.63;7.28;;;2.40;99.90;;;;;;5093514;28;20026;-68
2021/12/13 00:10:53;;;;;;;10.82;7.32;;;2.40;99.90;;;;;;5093364;28;20027;-68
2021/12/13 00:13:26;;;;;;;10.98;7.43;;;2.40;99.90;;;;;;5093683;28;20028;-68
2021/12/13 00:16:03;;;;;;;13.45;6.93;;;2.40;99.90;;;;;;5093001;28;20484;-68
2021/12/13 00:18:32;;;;;;;10.35;7.10;;;2.40;99.90;;;;;;5093283;28;20085;-68
2021/12/13 00:21:12;;;;;;;12.67;6.57;;;2.40;99.90;;;;;;5091676;28;20472;-67
2021/12/13 00:24:02;;;;;;;11.60;7.22;;;2.40;99.90;;;;;;5093471;28;20069;-68
2021/12/13 00:26:48;;;;;;;11.05;6.97;;;2.40;99.90;;;;;;5093056;28;20031;-68
2021/12/13 00:29:15;;;;;;;11.80;6.57;;;2.40;99.90;;;;;;5093285;28;20391;-68
2021/12/13 00:32:00;;;;;;;11.98;6.60;;;2.40;99.90;;;;;;5092992;28;20047;-68
2021/12/13 00:34:33;;;;;;;12.48;7.25;;;2.30;99.90;;;;;;5093110;28;20024;-68
2021/12/13 00:37:11;;;;;;;9.02;6.25;;;2.20;99.90;;;;;;5092663;28;20035;-68
2021/12/13 00:39:53;;;;;;;13.65;7.72;;;2.20;99.90;;;;;;5092936;28;20042;-68
2021/12/13 00:42:21;;;;;;;13.68;7.55;;;2.20;99.90;;;;;;5093201;28;20377;-68
2021/12/13 00:44:51;;;;;;;14.52;7.25;;;2.20;99.90;;;;;;5092713;28;20028;-68
2021/12/13 00:47:24;;;;;;;9.43;6.82;;;2.20;99.90;;;;;;5092755;28;20028;-67
2021/12/13 00:50:02;;;;;;;10.93;6.80;;;2.20;99.90;;;;;;5092737;28;20028;-67
2021/12/13 00:52:31;;;;;;;12.70;7.45;;;2.20;99.90;;;;;;5091519;28;20353;-67
2021/12/13 00:54:57;;;;;;;13.85;7.80;;;2.10;99.90;;;;;;5092541;28;20480;-67
2021/12/13 00:57:43;;;;;;;12.80;7.35;;;2.10;99.90;;;;;;5092614;28;20149;-67
2021/12/13 01:00:14;;;;;;;9.48;6.18;;;2.10;99.90;;;;;;5092300;28;20074;-68
2021/12/13 01:02:43;;;;;;;10.75;6.75;;;2.10;99.90;;;;;;5092557;28;20507;-67
2021/12/13 01:05:30;;;;;;;12.68;7.20;;;2.00;99.90;;;;;;5092222;28;20039;-67
2021/12/13 01:08:20;;;;;;;11.13;7.28;;;2.00;99.90;;;;;;5092274;28;20112;-67
2021/12/13 01:11:30;;;;;;;11.87;7.37;;;2.00;99.90;;;;;;5092079;28;20024;-67
2021/12/13 01:14:33;;;;;;;10.90;7.20;;;2.00;99.90;;;;;;5032816;28;20613;-67
2021/12/13 01:17:11;;;;;;;11.45;6.90;;;2.00;99.90;;;;;;5092329;28;20777;-67
2021/12/13 01:19:51;;;;;;;11.32;6.38;;;2.00;99.90;;;;;;5092300;28;20609;-67
2021/12/13 01:25:16;;;;;;;11.48;7.20;;;2.00;99.90;;;;;;5092452;28;20028;-67
2021/12/13 01:27:44;;;;;;;9.40;6.85;;;2.00;99.90;;;;;;5091976;28;20059;-67
2021/12/13 01:30:15;;;;;;;12.48;7.57;;;2.00;99.90;;;;;;5091875;28;20042;-68
2021/12/13 01:32:54;;;;;;;12.45;7.03;;;2.10;99.90;;;;;;5092315;28;20376;-68
2021/12/13 01:35:25;;;;;;;10.98;6.80;;;2.10;99.90;;;;;;5091700;28;20031;-68
2021/12/13 01:37:53;;;;;;;10.68;7.30;;;2.10;99.90;;;;;;5092030;28;20066;-67
2021/12/13 01:40:27;;;;;;;10.23;6.45;;;2.10;99.90;;;;;;5091923;28;20024;-67
2021/12/13 01:43:00;;;;;;;9.55;5.53;;;2.10;99.90;;;;;;5092002;28;20017;-67
2021/12/13 01:45:28;;;;;;;8.73;5.55;;;2.10;99.90;;;;;;5091875;28;20422;-67
2021/12/13 01:47:54;;;;;;;8.77;5.75;;;2.10;99.90;;;;;;5091873;28;20073;-67
2021/12/13 01:50:28;;;;;;;9.77;5.70;;;2.10;99.90;;;;;;5091364;28;20092;-68
2021/12/13 01:52:55;;;;;;;10.07;6.05;;;2.10;99.90;;;;;;5111685;28;20062;-68
2021/12/13 01:55:26;;;;;;;8.27;5.25;;;2.10;99.90;;;;;;5112072;28;20031;-68
2021/12/13 01:58:18;;;;;;;7.35;5.15;;;2.10;99.90;;;;;;5110915;28;20028;-68
2021/12/13 02:03:57;;;;;;;9.15;5.97;;;2.20;99.90;;;;;;5112403;28;20039;-68
2021/12/13 02:06:28;;;;;;;8.57;5.20;;;2.20;99.90;;;;;;5111964;28;20108;-68
2021/12/13 02:08:57;;;;;;;7.63;5.30;;;2.20;99.90;;;;;;5112205;28;20065;-68
2021/12/13 02:11:25;;;;;;;7.78;4.75;;;2.10;99.90;;;;;;5112060;28;20020;-67
2021/12/13 02:14:32;;;;;;;7.95;5.05;;;2.20;99.90;;;;;;5112354;28;20031;-68
2021/12/13 02:16:57;;;;;;;7.93;5.18;;;2.10;99.90;;;;;;5109616;28;20407;-67
2021/12/13 02:20:09;;;;;;;7.45;4.70;;;2.10;99.90;;;;;;5112172;28;20020;-68
2021/12/13 02:22:46;;;;;;;7.55;4.93;;;2.00;99.90;;;;;;5109725;28;20084;-68
2021/12/13 02:54:19;;;;;;;6.88;4.95;;;1.90;99.90;;;;;;5115255;28;20399;-67
2021/12/13 02:57:01;;;;;;;7.80;4.60;;;1.90;99.90;;;;;;5115387;28;20063;-67
2021/12/13 02:59:29;;;;;;;8.82;4.78;;;1.90;99.90;;;;;;5113838;28;20024;-67
2021/12/13 03:02:11;;;;;;;9.88;5.30;;;1.90;99.90;;;;;;5114971;28;20051;-67
2021/12/13 03:04:37;;;;;;;8.73;5.35;;;2.00;99.90;;;;;;5115273;28;20030;-67
2021/12/13 03:07:03;;;;;;;7.95;4.78;;;2.00;99.90;;;;;;5115299;28;20099;-67
2021/12/13 03:09:31;;;;;;;7.50;4.60;;;2.00;99.90;;;;;;5115246;28;20059;-67
2021/12/13 03:11:58;;;;;;;7.53;5.13;;;2.00;99.90;;;;;;5114828;27;20020;-67
2021/12/13 03:14:26;;;;;;;8.48;5.22;;;1.90;99.90;;;;;;5114827;28;20425;-67
2021/12/13 03:17:04;;;;;;;6.95;5.10;;;1.90;99.90;;;;;;5114773;28;20375;-67
2021/12/13 03:19:42;;;;;;;7.55;4.72;;;1.90;99.90;;;;;;5114697;28;20020;-67
2021/12/13 03:22:26;;;;;;;7.05;4.80;;;1.90;99.90;;;;;;5115012;28;20020;-67
2021/12/13 03:25:10;;;;;;;8.90;4.85;;;1.90;99.90;;;;;;5114932;28;20031;-67
2021/12/13 03:28:03;;;;;;;7.35;4.95;;;1.90;99.90;;;;;;5114471;28;20028;-67
2021/12/13 03:30:44;;;;;;;7.45;5.00;;;1.90;99.90;;;;;;5114718;28;20023;-68
2021/12/13 03:33:13;;;;;;;8.68;5.35;;;1.80;99.90;;;;;;5114632;28;20077;-68
2021/12/13 03:35:50;;;;;;;6.68;4.50;;;1.70;99.90;;;;;;5114003;28;20034;-68
2021/12/13 03:38:33;;;;;;;7.97;5.63;;;1.70;99.90;;;;;;5113230;28;20047;-68
2021/12/13 03:41:07;;;;;;;6.82;4.97;;;1.60;99.90;;;;;;5114468;28;20062;-68
2021/12/13 03:43:41;;;;;;;8.27;5.07;;;1.60;99.90;;;;;;5114387;28;20024;-67
2021/12/13 03:46:11;;;;;;;6.97;4.90;;;1.70;99.90;;;;;;5114363;28;20076;-67
2021/12/13 03:48:39;;;;;;;7.90;5.85;;;1.70;99.90;;;;;;5114599;28;20514;-67
2021/12/13 03:51:11;;;;;;;6.75;4.70;;;1.70;99.90;;;;;;5114495;28;20084;-68
2021/12/13 03:53:38;;;;;;;7.05;4.90;;;1.60;99.90;;;;;;5114101;28;20107;-68
2021/12/13 03:56:10;;;;;;;8.40;5.07;;;1.60;99.90;;;;;;5112635;28;20441;-68
2021/12/13 03:58:42;;;;;;;8.77;5.40;;;1.60;99.90;;;;;;5114208;28;20019;-68
2021/12/13 04:01:20;;;;;;;8.38;5.20;;;1.60;99.90;;;;;;5113821;27;20499;-68
2021/12/13 04:03:50;;;;;;;7.35;5.10;;;1.60;99.90;;;;;;5114013;28;20551;-67
2021/12/13 04:06:18;;;;;;;9.27;5.72;;;1.60;99.90;;;;;;5113778;28;20023;-67
2021/12/13 04:08:46;;;;;;;7.38;5.20;;;1.60;99.90;;;;;;5113760;28;20083;-67
2021/12/13 04:11:12;;;;;;;6.82;4.85;;;1.60;99.90;;;;;;5112724;28;20055;-67
2021/12/13 04:14:06;;;;;;;7.85;5.47;;;1.50;99.90;;;;;;5113891;28;20028;-67
2021/12/13 04:17:03;;;;;;;8.77;5.22;;;1.50;99.90;;;;;;5113749;28;20036;-67
2021/12/13 04:19:47;;;;;;;8.20;5.28;;;1.50;99.90;;;;;;5113525;28;20409;-66
2021/12/13 04:22:17;;;;;;;10.57;6.38;;;1.40;99.90;;;;;;5112631;28;20115;-66
2021/12/13 04:25:08;;;;;;;11.32;6.07;;;1.30;99.90;;;;;;5113590;28;20031;-66
2021/12/13 04:27:36;;;;;;;;;;;1.30;99.90;;;;;;5113445;28;20118;-66
2021/12/13 04:30:19;;;;;;;9.55;6.28;;;1.20;99.90;;;;;;5113667;28;19907;-66
2021/12/13 04:32:55;;;;;;;9.98;6.63;;;1.20;99.90;;;;;;5113688;28;20019;-66
2021/12/13 04:35:23;;;;;;;10.23;5.90;;;1.30;99.90;;;;;;5113068;28;20023;-67
2021/12/13 04:37:54;;;;;;;9.20;5.82;;;1.40;99.90;;;;;;5111930;28;20402;-66
2021/12/13 04:40:23;;;;;;;9.10;6.20;;;1.40;99.90;;;;;;5113103;28;20020;-67
2021/12/13 04:42:56;;;;;;;10.73;6.60;;;1.40;99.90;;;;;;5113195;28;20107;-67
2021/12/13 04:45:23;;;;;;;9.13;6.78;;;1.50;99.90;;;;;;5112620;28;20015;-67
2021/12/13 04:48:17;;;;;;;10.77;6.95;;;1.40;99.90;;;;;;5111564;28;20027;-67
2021/12/13 04:50:48;;;;;;;9.63;6.53;;;1.30;99.90;;;;;;5111298;28;20031;-67
2021/12/13 04:53:46;;;;;;;11.45;6.90;;;1.20;99.90;;;;;;5112978;28;20500;-67
2021/12/13 04:56:15;;;;;;;10.10;6.82;;;1.30;99.90;;;;;;5112864;28;20114;-67
2021/12/13 04:58:44;;;;;;;9.55;6.47;;;1.30;99.90;;;;;;5112905;28;20047;-67
2021/12/13 05:01:12;;;;;;;8.63;5.95;;;1.40;99.90;;;;;;5112787;28;20075;-67
2021/12/13 05:03:44;;;;;;;10.15;6.78;;;1.40;99.90;;;;;;5112734;28;20572;-67
2021/12/13 05:06:14;;;;;;;15.35;7.25;;;1.40;99.90;;;;;;5112956;28;20108;-67
2021/12/13 05:08:41;;;;;;;;;;;1.40;99.90;;;;;;5112053;28;20031;-67
2021/12/13 05:11:08;;;;;;;10.40;6.47;;;1.40;99.90;;;;;;5112809;28;19915;-67
2021/12/13 05:13:47;;;;;;;9.20;6.40;;;1.30;99.90;;;;;;5112757;28;20024;-67
2021/12/13 05:16:15;;;;;;;11.70;6.40;;;1.20;99.90;;;;;;5112550;28;20077;-68
2021/12/13 05:18:47;;;;;;;11.73;6.68;;;1.10;99.90;;;;;;5112678;28;20026;-68
2021/12/13 05:21:32;;;;;;;10.77;6.68;;;1.10;99.90;;;;;;5112496;28;20020;-68
2021/12/13 05:24:02;;;;;;;10.32;6.35;;;1.00;99.90;;;;;;5112684;28;20471;-68
2021/12/13 05:26:51;;;;;;;9.07;6.25;;;0.90;99.90;;;;;;5112272;28;20383;-68
2021/12/13 05:29:22;;;;;;;9.18;6.13;;;1.00;99.90;;;;;;5112393;28;20115;-68
2021/12/13 05:31:54;;;;;;;10.00;6.18;;;1.00;99.90;;;;;;5112503;28;20027;-66
2021/12/13 05:34:20;;;;;;;12.25;6.63;;;1.00;99.90;;;;;;5112034;28;20106;-65
2021/12/13 05:36:57;;;;;;;12.23;7.57;;;0.90;99.90;;;;;;5111814;28;20067;-73
2021/12/13 05:39:23;;;;;;;3.15;2.20;;;0.80;99.90;;;;;;5112225;28;20089;-70
2021/12/13 05:42:06;;;;;;;9.55;5.35;;;1.20;99.90;;;;;;5112140;28;20106;-70
2021/12/13 05:44:36;;;;;;;10.05;6.45;;;3.30;99.90;;;;;;5112161;28;20413;-72
2021/12/13 05:47:07;;;;;;;7.68;5.85;;;3.40;99.90;;;;;;5098429;28;20028;-70
2021/12/13 05:49:40;;;;;;;13.05;6.30;;;2.90;99.90;;;;;;5091327;28;20016;-70
2021/12/13 05:52:18;;;;;;;8.88;5.65;;;2.50;99.90;;;;;;5091344;28;20020;-72
2021/12/13 05:54:51;;;;;;;10.82;6.13;;;2.30;99.90;;;;;;5094002;28;20464;-75
2021/12/13 05:57:28;;;;;;;9.73;5.85;;;2.00;99.90;;;;;;5103547;28;20032;-70
2021/12/13 06:00:02;;;;;;;10.55;6.40;;;1.80;99.90;;;;;;5101880;28;20081;-72
2021/12/13 06:02:40;;;;;;;10.00;5.90;;;1.60;99.90;;;;;;5110348;28;20042;-68
2021/12/13 06:05:24;;;;;;;8.27;5.25;;;1.50;99.90;;;;;;5113943;28;20066;-68
2021/12/13 06:07:56;;;;;;;8.95;5.88;;;1.40;99.90;;;;;;5104092;28;20046;-68
2021/12/13 06:10:29;;;;;;;9.98;6.03;;;1.30;99.90;;;;;;5093813;28;20043;-68
2021/12/13 06:12:59;;;;;;;9.32;5.78;;;1.20;99.90;;;;;;5096209;28;20020;-68
2021/12/13 06:15:38;;;;;;;8.13;5.80;;;1.20;99.90;;;;;;5094870;28;20099;-68
2021/12/13 06:18:03;;;;;;;11.13;6.75;;;1.10;99.90;;;;;;5095092;28;20044;-68
2021/12/13 06:20:34;;;;;;;8.25;5.63;;;1.00;99.90;;;;;;5095163;28;20537;-71
2021/12/13 06:23:08;;;;;;;7.85;5.55;;;1.00;99.90;;;;;;5095416;28;20106;-67
2021/12/13 06:25:35;;;;;;;13.75;6.10;;;1.00;99.90;;;;;;5095407;28;20035;-67
2021/12/13 06:28:00;;;;;;;9.85;5.72;;;0.90;99.90;;;;;;5094199;28;20499;-67
2021/12/13 06:30:30;;;;;;;11.40;6.95;;;0.80;99.90;;;;;;5095073;28;20032;-67
2021/12/13 06:33:06;;;;;;;11.05;6.65;;;0.80;99.90;;;;;;5095098;28;20024;-67
2021/12/13 06:35:40;;;;;;;9.60;6.10;;;0.70;99.90;;;;;;5095086;28;20028;-67
2021/12/13 06:38:45;;;;;;;9.82;6.47;;;0.80;99.90;;;;;;5094970;28;20036;-66
2021/12/13 06:41:15;;;;;;;9.90;5.65;;;0.70;99.90;;;;;;5094572;28;20043;-67
2021/12/13 06:43:47;;;;;;;;;;;0.70;99.90;;;;;;5095444;28;20031;-67
2021/12/13 06:46:25;;;;;;;9.90;5.80;;;0.60;99.90;;;;;;5094699;28;19904;-66
2021/12/13 06:48:59;;;;;;;9.35;5.82;;;0.50;99.90;;;;;;5094916;28;20020;-66
2021/12/13 06:51:45;;;;;;;10.10;6.40;;;0.40;99.90;;;;;;5094649;28;20027;-66
2021/12/13 06:54:32;;;;;;;9.90;6.35;;;0.40;99.90;;;;;;5094946;28;20020;-66
2021/12/13 06:57:01;;;;;;;8.65;6.30;;;0.40;99.90;;;;;;5094758;28;20024;-66
2021/12/13 06:59:29;;;;;;;9.60;6.28;;;0.30;99.90;;;;;;5094677;28;20030;-66
2021/12/13 07:02:01;;;;;;;9.50;5.90;;;0.20;99.90;;;;;;5094570;28;20036;-66
2021/12/13 07:04:36;;;;;;;9.88;5.93;;;0.20;99.90;;;;;;5094397;28;20055;-66
2021/12/13 07:07:11;;;;;;;9.50;6.43;;;0.10;99.90;;;;;;5094695;28;20476;-71
2021/12/13 07:09:38;;;;;;;7.65;5.15;;;0.10;99.90;;;;;;5093803;28;20457;-69
2021/12/13 07:12:14;;;;;;;11.00;5.72;;;0.10;99.90;;;;;;5094481;28;20495;-66
2021/12/13 07:14:40;;;;;;;9.73;5.97;;;0.50;99.90;;;;;;5093910;28;20110;-66
2021/12/13 07:17:17;;;;;;;10.90;6.82;;;0.70;99.90;;;;;;5093749;28;20128;-66
2021/12/13 07:19:47;;;;;;;11.32;6.72;;;0.70;99.90;;;;;;5094395;28;20024;-66
2021/12/13 07:22:19;;;;;;;9.05;5.68;;;0.50;99.90;;;;;;5094287;28;20115;-67
2021/12/13 07:25:10;;;;;;;9.27;6.10;;;0.30;99.90;;;;;;5094163;28;20030;-68
2021/12/13 07:27:46;;;;;;;13.40;6.40;;;0.30;99.90;;;;;;5094152;28;20496;-65
2021/12/13 07:30:33;;;;;;;16.10;7.55;;;0.40;99.90;;;;;;5094321;28;20111;-67
2021/12/13 07:33:07;;;;;;;15.15;7.90;;;0.70;99.90;;;;;;5094156;28;20031;-67
2021/12/13 07:35:41;;;;;;;11.40;6.68;;;0.60;99.90;;;;;;5094169;28;20036;-67
2021/12/13 07:38:19;;;;;;;10.23;6.28;;;0.50;99.90;;;;;;5093995;28;20508;-67
2021/12/13 07:40:44;;;;;;;11.60;6.63;;;0.40;99.90;;;;;;5094001;28;20029;-66
2021/12/13 07:43:29;;;;;;;12.45;7.03;;;0.40;99.90;;;;;;5093931;28;20032;-67
2021/12/13 07:46:09;;;;;;;14.40;7.68;;;0.40;99.90;;;;;;5093944;28;20044;-66
2021/12/13 07:48:41;;;;;;;17.42;8.93;;;0.40;99.90;;;;;;5093636;28;20024;-66
2021/12/13 07:51:29;;;;;;;12.93;7.97;;;0.40;99.90;;;;;;5093501;28;20567;-64
2021/12/13 07:53:58;;;;;;;231.63;90.63;;;0.40;99.90;;;;;;5093821;28;20028;-67
2021/12/13 07:56:33;;;;;;;58.65;18.73;;;0.40;99.90;;;;;;5093391;28;20039;-69
2021/12/13 07:59:07;;;;;;;16.85;9.25;;;0.60;99.90;;;;;;5095733;28;20095;-67
2021/12/13 08:02:04;;;;;;;10.95;6.95;;;1.70;99.90;;;;;;5091737;28;20054;-68
2021/12/13 08:04:45;;;;;;;9.98;6.03;;;1.80;99.90;;;;;;5077214;28;20040;-71
2021/12/13 08:07:16;;;;;;;10.60;6.50;;;1.80;99.90;;;;;;5093646;28;20056;-65
2021/12/13 08:09:44;;;;;;;;;;;1.80;99.90;;;;;;5093648;28;20030;-65
2021/12/13 08:12:15;;;;;;;8.80;5.18;;;1.90;99.90;;;;;;5093369;28;19904;-65
2021/12/13 08:14:43;;;;;;;10.90;5.70;;;1.80;99.90;;;;;;5097385;28;20073;-65
2021/12/13 08:17:21;;;;;;;10.70;5.85;;;1.70;99.90;;;;;;5092999;28;20032;-64
2021/12/13 08:20:00;;;;;;;10.60;6.35;;;1.60;99.90;;;;;;5093291;28;20085;-64
2021/12/13 08:22:30;;;;;;;9.32;6.32;;;1.60;99.90;;;;;;5092223;28;20024;-63
2021/12/13 08:25:06;;;;;;;9.25;5.88;;;1.50;99.90;;;;;;5093050;28;20613;-63
2021/12/13 08:27:38;;;;;;;10.65;6.47;;;1.40;99.90;;;;;;5092914;28;20032;-63
2021/12/13 08:30:07;;;;;;;9.57;6.43;;;1.30;99.90;;;;;;5092887;28;20020;-63
2021/12/13 08:32:33;;;;;;;8.90;5.95;;;1.20;99.90;;;;;;5092928;28;20024;-63
2021/12/13 08:35:01;;;;;;;10.52;6.28;;;1.10;99.90;;;;;;5092532;28;20505;-63
2021/12/13 08:37:39;;;;;;;9.63;5.75;;;1.00;99.90;;;;;;5092479;28;20036;-63
2021/12/13 08:40:08;;;;;;;7.82;4.88;;;0.90;99.90;;;;;;5111837;28;20051;-63
2021/12/13 08:42:45;;;;;;;8.95;5.78;;;0.90;99.90;;;;;;5068762;27;20586;-68
2021/12/13 08:45:28;;;;;;;7.00;2.97;;;0.80;99.90;;;;;;5069226;28;20500;-68
2021/12/13 08:47:56;;;;;;;8.20;5.15;;;1.30;99.90;;;;;;5068980;28;20025;-65
2021/12/13 08:50:29;;;;;;;5.50;2.95;;;3.10;99.90;;;;;;5068733;28;20484;-64
2021/12/13 08:53:01;;;;;;;8.75;5.93;;;4.50;99.90;;;;;;5049059;28;20052;-65
2021/12/13 08:55:39;;;;;;;7.25;4.75;;;5.30;99.90;;;;;;5049080;28;20021;-65
2021/12/13 08:58:07;;;;;;;7.68;5.15;;;4.40;99.90;;;;;;5048970;28;20029;-65
2021/12/13 09:00:33;;;;;;;8.50;5.45;;;3.50;99.90;;;;;;5047438;28;20440;-65
2021/12/13 09:03:20;;;;;;;9.88;5.30;;;2.70;99.90;;;;;;5049133;28;20108;-65
2021/12/13 09:06:08;;;;;;;9.65;5.53;;;2.20;99.90;;;;;;5048721;28;20029;-65
2021/12/13 09:08:36;;;;;;;7.40;5.07;;;1.80;99.90;;;;;;5048591;28;20032;-65
2021/12/13 09:11:24;;;;;;;6.60;4.80;;;1.60;99.90;;;;;;5048913;28;20036;-65
2021/12/13 09:13:53;;;;;;;7.63;4.65;;;1.40;99.90;;;;;;5048668;28;20025;-64
2021/12/13 09:16:24;;;;;;;9.35;5.25;;;1.20;99.90;;;;;;5048750;28;20021;-65
2021/12/13 09:19:15;;;;;;;8.45;5.28;;;1.00;99.90;;;;;;5048893;28;20036;-65
2021/12/13 09:22:13;;;;;;;9.93;5.28;;;0.90;99.90;;;;;;5048458;28;20120;-65
2021/12/13 09:24:58;;;;;;;7.75;4.85;;;0.80;99.90;;;;;;5047136;28;20029;-65
2021/12/13 09:27:27;;;;;;;8.85;5.30;;;0.70;99.90;;;;;;5048475;28;20029;-65
2021/12/13 09:30:11;;;;;;;7.85;5.00;;;0.60;99.90;;;;;;5048593;28;20031;-65
2021/12/13 09:32:41;;;;;;;7.72;5.10;;;0.40;99.90;;;;;;5048242;28;20024;-65
2021/12/13 09:35:19;;;;;;;8.80;5.30;;;0.40;99.90;;;;;;5048512;28;20044;-65
2021/12/13 09:37:45;;;;;;;10.05;5.57;;;0.20;99.90;;;;;;5048385;28;20475;-64
2021/12/13 09:40:11;;;;;;;9.43;5.22;;;0.20;99.90;;;;;;5048149;28;20053;-65
2021/12/13 09:42:51;;;;;;;9.48;5.35;;;0.10;99.90;;;;;;5047769;28;20095;-65
2021/12/13 09:45:25;;;;;;;9.90;5.10;;;0.00;99.90;;;;;;5048432;28;20036;-65
2021/12/13 09:47:51;;;;;;;9.40;5.53;;;0.00;99.90;;;;;;5047934;28;20807;-64
2021/12/13 09:50:27;;;;;;;8.57;5.57;;;-0.10;99.90;;;;;;5048099;28;20108;-64
2021/12/13 09:52:53;;;;;;;9.55;5.13;;;-0.20;99.90;;;;;;5040954;28;20370;-65
2021/12/13 09:55:26;;;;;;;7.90;5.07;;;-0.20;99.90;;;;;;5041909;28;20078;-65
2021/12/13 09:58:06;;;;;;;9.63;5.00;;;1.00;99.90;;;;;;5054407;28;20032;-65
2021/12/13 10:00:48;;;;;;;8.73;4.75;;;1.10;99.90;;;;;;5054650;28;20044;-63
2021/12/13 10:03:41;;;;;;;7.60;4.82;;;0.80;99.90;;;;;;5054571;28;20078;-63
2021/12/13 10:06:09;;;;;;;10.25;5.65;;;0.40;99.90;;;;;;5052341;28;20120;-63
2021/12/13 10:08:53;;;;;;;8.30;5.28;;;0.00;99.90;;;;;;5054050;28;20035;-65
2021/12/13 10:11:25;;;;;;;8.80;5.25;;;2.70;99.90;;;;;;5052997;28;20029;-64
2021/12/13 10:13:52;;;;;;;7.47;4.80;;;2.80;99.90;;;;;;5053334;28;20036;-66
2021/12/13 10:16:22;;;;;;;7.93;5.07;;;2.10;99.90;;;;;;5053403;28;20536;-66
2021/12/13 10:18:51;;;;;;;7.60;4.93;;;1.50;99.90;;;;;;5053561;28;20058;-66
2021/12/13 10:21:29;;;;;;;9.05;5.60;;;1.00;99.90;;;;;;5052270;28;20037;-66
2021/12/13 10:24:09;;;;;;;9.05;5.32;;;0.60;99.90;;;;;;5059432;28;20020;-65
2021/12/13 10:26:41;;;;;;;8.75;5.72;;;0.30;99.90;;;;;;5059182;28;20025;-65
2021/12/13 10:29:11;;;;;;;9.45;5.38;;;0.10;99.90;;;;;;5069579;28;20021;-65
2021/12/13 10:31:42;;;;;;;11.35;5.60;;;-0.10;99.90;;;;;;5059274;28;20025;-65
2021/12/13 10:34:19;;;;;;;9.65;5.60;;;-0.20;99.90;;;;;;5056580;28;20427;-65
2021/12/13 10:36:55;;;;;;;8.50;5.43;;;-0.40;99.90;;;;;;5053724;28;20086;-65
2021/12/13 10:39:28;;;;;;;8.70;5.70;;;-0.50;99.90;;;;;;5053824;28;20112;-65
2021/12/13 10:41:57;;;;;;;9.70;5.50;;;-0.60;99.90;;;;;;5053329;28;20127;-66
2021/12/13 10:44:28;;;;;;;7.13;4.30;;;-0.70;99.90;;;;;;5053353;28;20028;-66
2021/12/13 10:47:01;;;;;;;8.32;5.13;;;-0.60;99.90;;;;;;5053832;28;20025;-66
2021/12/13 10:49:30;;;;;;;9.80;5.97;;;0.50;99.90;;;;;;5053921;28;20032;-65
2021/12/13 10:52:12;;;;;;;11.30;5.63;;;0.40;99.90;;;;;;5053452;28;20063;-66
2021/12/13 10:54:43;;;;;;;7.32;3.97;;;0.20;99.90;;;;;;5053131;28;20384;-66
2021/12/13 10:57:47;;;;;;;9.13;5.60;;;1.40;99.90;;;;;;5052257;28;20037;-66
2021/12/13 11:00:18;;;;;;;10.30;5.25;;;3.30;99.90;;;;;;5052065;28;20033;-66
2021/12/13 11:02:45;;;;;;;11.30;6.32;;;3.00;99.90;;;;;;5053139;28;20040;-66
2021/12/13 11:05:16;;;;;;;9.80;5.93;;;2.30;99.90;;;;;;5052227;28;20473;-66
2021/12/13 11:07:42;;;;;;;;;;;1.60;99.90;;;;;;5053298;28;20043;-66
2021/12/13 11:10:11;;;;;;;15.30;6.90;;;1.20;99.90;;;;;;5053129;28;19904;-66
2021/12/13 11:12:43;;;;;;;14.30;7.53;;;0.80;99.90;;;;;;5053280;28;20051;-66
2021/12/13 11:15:18;;;;;;;13.80;6.53;;;0.60;99.90;;;;;;5052945;28;20027;-66
2021/12/13 11:17:44;;;;;;;10.10;6.00;;;0.30;99.90;;;;;;5053134;28;20032;-66
2021/12/13 11:20:12;;;;;;;11.18;6.32;;;0.10;99.90;;;;;;5052903;28;20021;-66
2021/12/13 11:22:39;;;;;;;13.02;6.57;;;-0.10;99.90;;;;;;5052610;28;20045;-66
2021/12/13 11:25:13;;;;;;;11.13;6.38;;;-0.30;99.90;;;;;;5052722;28;20033;-64
2021/12/13 11:27:39;;;;;;;12.07;6.68;;;-0.40;99.90;;;;;;5052581;28;20039;-64
2021/12/13 11:30:12;;;;;;;11.95;6.75;;;-0.50;99.90;;;;;;5053070;28;20029;-64
2021/12/13 11:32:57;;;;;;;12.40;6.53;;;-0.60;99.90;;;;;;5052490;28;20032;-66
2021/12/13 11:35:54;;;;;;;12.30;7.18;;;-0.70;99.90;;;;;;5052492;28;20033;-66
2021/12/13 11:38:31;;;;;;;13.80;8.23;;;-0.80;99.90;;;;;;5052094;28;20385;-66
2021/12/13 11:41:35;;;;;;;18.58;8.88;;;-0.90;99.90;;;;;;5052233;28;20128;-66
2021/12/13 11:44:28;;;;;;;18.20;8.93;;;-1.00;99.90;;;;;;5051955;28;20024;-66
2021/12/13 11:47:33;;;;;;;16.23;7.85;;;-1.00;99.90;;;;;;5052407;28;20481;-66
2021/12/13 11:50:32;;;;;;;18.50;8.43;;;-1.00;99.90;;;;;;5052194;28;20079;-66
2021/12/13 11:53:26;;;;;;;13.88;6.82;;;-1.00;99.90;;;;;;5052263;28;20059;-66
2021/12/13 11:56:13;;;;;;;12.68;6.15;;;-1.00;99.90;;;;;;5052435;28;20020;-66
2021/12/13 11:59:16;;;;;;;9.52;5.90;;;-1.10;99.90;;;;;;5052167;28;20377;-66
2021/12/13 12:02:01;;;;;;;10.75;5.63;;;-1.10;99.90;;;;;;5050431;28;20032;-66
2021/12/13 12:04:45;;;;;;;9.95;6.18;;;-1.10;99.90;;;;;;5032589;28;20108;-66
2021/12/13 12:07:14;;;;;;;13.93;7.57;;;-1.10;99.90;;;;;;5031090;28;20026;-66
2021/12/13 12:10:05;;;;;;;11.60;7.00;;;-1.20;99.90;;;;;;5032291;28;20033;-66
2021/12/13 12:12:40;;;;;;;7.90;5.15;;;-1.30;99.90;;;;;;5032517;28;20446;-66
2021/12/13 12:15:09;;;;;;;8.93;4.85;;;-1.30;99.90;;;;;;5032203;28;20431;-66
2021/12/13 12:17:35;;;;;;;8.18;4.82;;;-1.40;99.90;;;;;;5032345;28;20033;-66
2021/12/13 12:20:09;;;;;;;7.07;4.55;;;-1.50;99.90;;;;;;5032038;28;20551;-66
2021/12/13 12:22:54;;;;;;;5.93;4.25;;;-1.60;99.90;;;;;;5031930;28;20152;-66
2021/12/13 12:25:23;;;;;;;7.47;4.47;;;-1.70;99.90;;;;;;5031562;28;20424;-66
2021/12/13 12:27:54;;;;;;;7.32;4.45;;;-1.70;99.90;;;;;;5030389;28;20033;-66
2021/12/13 12:30:25;;;;;;;8.50;4.47;;;-1.70;99.90;;;;;;5031942;28;20021;-67
2021/12/13 12:32:57;;;;;;;6.93;4.18;;;-1.00;99.90;;;;;;5031707;28;20460;-67
2021/12/13 12:35:32;;;;;;;6.43;4.43;;;-0.60;99.90;;;;;;5031783;28;20060;-69
2021/12/13 12:37:59;;;;;;;8.00;4.95;;;-0.40;99.90;;;;;;5035253;28;20021;-67
2021/12/13 12:40:30;;;;;;;6.90;4.63;;;-0.50;99.90;;;;;;5050909;28;20021;-68
2021/12/13 12:42:59;;;;;;;8.52;4.70;;;-0.70;99.90;;;;;;5050690;28;20028;-68
2021/12/13 12:45:30;;;;;;;5.93;4.10;;;-0.80;99.90;;;;;;5051279;28;20109;-68
2021/12/13 12:48:05;;;;;;;7.45;4.55;;;-1.00;99.90;;;;;;5050979;28;20065;-67
2021/12/13 12:50:43;;;;;;;12.88;4.47;;;-1.10;99.90;;;;;;5051638;28;20044;-67
2021/12/13 12:53:18;;;;;;;7.25;4.68;;;-1.20;99.90;;;;;;5051596;28;20039;-67
2021/12/13 12:56:05;;;;;;;9.82;4.70;;;-1.20;99.90;;;;;;5051811;28;20117;-67
2021/12/13 12:58:39;;;;;;;7.40;4.32;;;-1.30;99.90;;;;;;5051364;28;20033;-67
2021/12/13 13:01:19;;;;;;;8.20;4.68;;;-1.40;99.90;;;;;;5051547;28;20043;-67
2021/12/13 13:03:45;;;;;;;7.97;4.55;;;-1.50;99.90;;;;;;5051288;28;20017;-67
2021/12/13 13:06:20;;;;;;;8.13;4.45;;;-1.50;99.90;;;;;;5051524;28;20493;-66
2021/12/13 13:08:49;;;;;;;8.38;4.32;;;-1.60;99.90;;;;;;5051456;28;20032;-67
2021/12/13 13:11:34;;;;;;;7.72;4.75;;;-1.70;99.90;;;;;;5051098;28;20389;-66
2021/12/13 13:14:22;;;;;;;7.60;4.40;;;-1.70;99.90;;;;;;5051095;28;20047;-67
2021/12/13 13:16:54;;;;;;;9.65;4.40;;;-1.80;99.90;;;;;;5050546;28;20029;-64
2021/12/13 13:19:30;;;;;;;3.63;2.28;;;-2.00;99.90;;;;;;5051515;28;20048;-68
2021/12/13 13:22:08;;;;;;;7.75;4.43;;;-1.70;99.90;;;;;;5051267;28;20040;-66
2021/12/13 13:24:42;;;;;;;8.63;4.30;;;2.20;99.90;;;;;;5051286;28;20033;-67
2021/12/13 13:27:10;;;;;;;8.35;4.47;;;2.30;99.90;;;;;;5051556;28;20031;-65
2021/12/13 13:29:36;;;;;;;4.82;3.78;;;1.50;99.90;;;;;;5055349;28;20024;-64
2021/12/13 13:32:03;;;;;;;6.40;4.18;;;0.70;99.90;;;;;;5054864;28;20121;-64
2021/12/13 13:34:33;;;;;;;7.05;3.88;;;0.40;99.90;;;;;;5055105;28;20025;-64
2021/12/13 13:37:25;;;;;;;8.25;4.93;;;-0.10;99.90;;;;;;5053777;28;20075;-64
2021/12/13 13:39:56;;;;;;;6.47;4.47;;;-0.60;99.90;;;;;;5054880;28;20389;-64
2021/12/13 13:42:26;;;;;;;8.25;5.05;;;-1.00;99.90;;;;;;5054586;28;20049;-64
2021/12/13 13:45:00;;;;;;;7.25;5.43;;;-1.30;99.90;;;;;;5054539;28;20017;-64
2021/12/13 13:47:37;;;;;;;7.60;4.40;;;-1.50;99.90;;;;;;5054452;28;20485;-64
2021/12/13 13:50:48;;;;;;;10.48;5.10;;;-1.60;99.90;;;;;;5054867;28;20025;-64
2021/12/13 13:53:28;;;;;;;9.07;4.65;;;-1.80;99.90;;;;;;5054212;28;20554;-64
2021/12/13 13:56:10;;;;;;;12.00;7.60;;;-2.00;99.90;;;;;;5054485;28;20507;-64
2021/12/13 13:58:49;;;;;;;10.50;6.68;;;-1.80;99.90;;;;;;5054290;28;20040;-65
2021/12/13 14:01:21;;;;;;;10.27;5.95;;;-1.80;99.90;;;;;;5051568;28;20033;-65
2021/12/13 14:03:53;;;;;;;9.48;6.00;;;-1.90;99.90;;;;;;5054036;28;20099;-65
2021/12/13 14:06:32;;;;;;;13.95;6.15;;;-2.10;99.90;;;;;;5054275;28;20543;-65
2021/12/13 14:09:04;;;;;;;9.45;5.20;;;-2.10;99.90;;;;;;5053928;28;20061;-65
2021/12/13 14:11:32;;;;;;;10.82;5.13;;;-2.20;99.90;;;;;;5054170;28;20032;-65